Chhaensa, India

8:15 AM IST on July 28, 2017 (GMT +0530)
New Delhi - GK2 | | Change Station

Elev 810 ft 28.53 °N, 77.24 °E | Updated 3 seconds ago

Mostly Cloudy
Mostly Cloudy
84.0 °F
Feels Like 97 °F
N
3.0
Wind Variable Wind from ESE
Gusts 14.0 mph

Today
High -- | Low -- °F
--% Chance of Precip.
Yesterday
High -- | Low -- °F
Precip. -- in
Pressure 29.65 in
Visibility 1.9 miles
Clouds Scattered Clouds 3500 ft
Mostly Cloudy 10000 ft
Heat Index 97 °F
Dew Point 80 °F
Humidity 87%
Rainfall 0.00 in
Snow Depth Not available.
5:39 AM 7:13 PM
Waxing Crescent, 26% visible
METAR VIDD 280230Z 09007KT 3000 HZ SCT035 BKN100 31/25 Q1004 NOSIG
Pressure 29.65 in
Visibility 1.9 miles
Clouds Scattered Clouds 3500 ft
Mostly Cloudy 10000 ft
Heat Index 97 °F
Dew Point 80 °F
Humidity 87%
Rainfall 0.00 in
Snow Depth Not available.
5:39 AM 7:13 PM
Waxing Crescent, 26% visible
METAR VIDD 280230Z 09007KT 3000 HZ SCT035 BKN100 31/25 Q1004 NOSIG

Get Severe Weather Alerts

Thanks for signing up!

Be on the lookout for a verification email in your inbox.

You'll start receiving the daily forecast at 6 AM.

×

10-Day Weather Forecast

No radar image for this location.
×

Almanac

Astronomy

Jul. 28, 2017 Rise Set
Actual Time
Civil Twilight
Nautical Twilight
Astronomical Twilight
Moon
Length of Visible Light
Length of Day
Tomorrow will be .
, % of the Moon is Illuminated

Today's Extremes

Country Highs Country Lows

Community

WunderPhotos

Category 6

Welcome to Category 6. This is the collective home for Weather Underground's featured writeups by Dr. Jeff Masters (right), Bob Henson (left), Chris Burt, and other regular contributors.

Nearby

Air Quality

  Air Quality AQ Index Pollutant
Not available.

Snow Depth

Station Depth Elevation

Earthquake Activity

City Distance Mag. Time & Date
Minimum magnitude displayed is 2.5.

Coastal Water Temperatures

Place Temperature

Stations

Nearby Weather Stations

Station Location Temp. Windchill Dew Point Humidity Wind Precip. Elev Updated Type